createdAt,value
2018-12-30T00:00:13.623Z,24.07
2018-12-30T00:02:42.326Z,21.70
2018-12-30T00:05:11.565Z,22.90
2018-12-30T00:07:40.542Z,46.33
2018-12-30T00:10:09.242Z,78.20
2018-12-30T00:12:37.924Z,75.40
2018-12-30T00:15:06.667Z,66.20
2018-12-30T00:17:35.372Z,44.00
2018-12-30T00:20:04.641Z,31.73
2018-12-30T00:22:33.395Z,43.13
2018-12-30T00:25:02.151Z,43.53
2018-12-30T00:27:30.843Z,42.20
2018-12-30T00:29:59.689Z,37.60
2018-12-30T00:32:28.375Z,35.07
2018-12-30T00:34:57.053Z,29.40
2018-12-30T00:37:26.200Z,32.10
2018-12-30T00:39:54.884Z,34.33
2018-12-30T00:42:23.570Z,30.27
2018-12-30T00:44:52.773Z,29.77
2018-12-30T00:47:21.451Z,28.20
2018-12-30T00:49:50.171Z,32.80
2018-12-30T00:52:18.903Z,33.10
2018-12-30T00:54:47.611Z,33.83
2018-12-30T00:57:16.284Z,30.30
2018-12-30T00:59:45.209Z,32.63
2018-12-30T01:02:13.897Z,32.27
2018-12-30T01:04:42.600Z,27.87
2018-12-30T01:07:11.662Z,24.13
2018-12-30T01:09:40.341Z,23.70
2018-12-30T01:12:09.027Z,27.00
2018-12-30T01:14:37.861Z,23.10
2018-12-30T01:17:06.544Z,23.77
2018-12-30T01:19:35.234Z,20.10
2018-12-30T01:22:04.071Z,20.17
2018-12-30T01:24:32.751Z,19.47
2018-12-30T01:27:01.712Z,22.77
2018-12-30T01:29:30.538Z,22.60
2018-12-30T01:31:59.233Z,17.57
2018-12-30T01:34:27.923Z,20.20
2018-12-30T01:36:56.736Z,20.67
2018-12-30T01:39:25.411Z,21.90
2018-12-30T01:41:54.093Z,20.57
2018-12-30T01:44:22.944Z,21.87
2018-12-30T01:46:51.640Z,27.00
2018-12-30T01:49:20.328Z,22.27
2018-12-30T01:51:49.146Z,21.23
2018-12-30T01:54:18.019Z,18.73
2018-12-30T01:56:46.708Z,20.93
2018-12-30T01:59:15.645Z,22.73
2018-12-30T02:01:44.340Z,20.63
2018-12-30T02:04:13.024Z,22.80
2018-12-30T02:06:42.241Z,23.40
2018-12-30T02:09:10.931Z,26.50
2018-12-30T02:11:39.608Z,23.37
2018-12-30T02:14:08.330Z,23.67
2018-12-30T02:16:37.014Z,25.93
2018-12-30T02:19:05.997Z,26.47
2018-12-30T02:21:41.095Z,21.13
2018-12-30T02:24:05.504Z,23.10
2018-12-30T02:26:34.260Z,24.07
2018-12-30T02:29:03.086Z,25.47
2018-12-30T02:31:32.213Z,26.57
2018-12-30T02:34:00.907Z,24.87
2018-12-30T02:36:29.752Z,27.20
2018-12-30T02:38:58.437Z,26.53
2018-12-30T02:41:27.132Z,26.27
2018-12-30T02:43:56.430Z,30.97
2018-12-30T02:46:25.112Z,29.83
2018-12-30T02:48:53.924Z,27.23
2018-12-30T02:51:22.765Z,31.33
2018-12-30T02:53:51.452Z,28.43
2018-12-30T02:56:20.520Z,33.80
2018-12-30T02:58:49.264Z,28.47
2018-12-30T03:01:17.962Z,26.60
2018-12-30T03:03:46.634Z,27.37
2018-12-30T03:06:15.523Z,30.33
2018-12-30T03:08:44.339Z,27.90
2018-12-30T03:11:13.034Z,24.97
2018-12-30T03:13:41.834Z,25.27
2018-12-30T03:16:10.520Z,22.63
2018-12-30T03:18:39.211Z,34.97
2018-12-30T03:21:08.023Z,26.67
2018-12-30T03:23:36.711Z,21.17
2018-12-30T03:26:05.396Z,30.93
2018-12-30T03:28:34.228Z,35.27
2018-12-30T03:31:02.924Z,26.07
2018-12-30T03:33:31.599Z,26.77
2018-12-30T03:36:00.554Z,32.20
2018-12-30T03:38:29.245Z,24.07
2018-12-30T03:40:58.023Z,18.90
2018-12-30T03:43:27.106Z,18.33
2018-12-30T03:45:55.751Z,22.23
2018-12-30T03:48:24.432Z,19.33
2018-12-30T03:50:53.601Z,19.97
2018-12-30T03:53:22.287Z,19.47
2018-12-30T03:55:50.972Z,19.73
2018-12-30T03:58:19.702Z,22.93
2018-12-30T04:00:48.387Z,27.50
2018-12-30T04:03:17.087Z,21.93
2018-12-30T04:05:45.907Z,21.63
2018-12-30T04:08:14.595Z,29.00
2018-12-30T04:10:43.281Z,30.27
2018-12-30T04:13:12.109Z,20.27
2018-12-30T04:15:40.792Z,18.00
2018-12-30T04:18:09.489Z,21.63
2018-12-30T04:20:38.228Z,21.23
2018-12-30T04:23:06.904Z,18.40
2018-12-30T04:25:35.649Z,21.20
2018-12-30T04:28:04.557Z,19.47
2018-12-30T04:30:33.286Z,21.00
2018-12-30T04:33:01.935Z,19.57
2018-12-30T04:35:30.875Z,22.40
2018-12-30T04:37:59.579Z,20.10
2018-12-30T04:40:28.249Z,20.17
2018-12-30T04:42:57.006Z,22.53
2018-12-30T04:45:25.699Z,22.50
2018-12-30T04:47:54.398Z,21.63
2018-12-30T04:50:23.125Z,19.67
2018-12-30T04:52:51.945Z,18.73
2018-12-30T04:55:20.655Z,21.60
2018-12-30T04:57:49.591Z,21.73
2018-12-30T05:00:18.272Z,24.23
2018-12-30T05:02:46.956Z,21.97
2018-12-30T05:05:16.111Z,27.03
2018-12-30T05:07:44.809Z,24.77
2018-12-30T05:10:13.476Z,29.53
2018-12-30T05:12:42.284Z,42.30
2018-12-30T05:15:10.968Z,37.33
2018-12-30T05:17:39.666Z,34.73
2018-12-30T05:20:08.706Z,39.67
2018-12-30T05:22:37.401Z,41.57
2018-12-30T05:25:06.395Z,32.53
2018-12-30T05:27:35.244Z,30.73
2018-12-30T05:30:04.705Z,34.87
2018-12-30T05:32:33.388Z,38.50
2018-12-30T05:35:02.201Z,36.07
2018-12-30T05:37:30.905Z,32.60
2018-12-30T05:39:59.581Z,26.17
2018-12-30T05:42:28.584Z,28.57
2018-12-30T05:44:57.264Z,31.60
2018-12-30T05:47:25.951Z,31.83
2018-12-30T05:49:54.701Z,30.93
2018-12-30T05:52:23.384Z,37.77
2018-12-30T05:54:52.113Z,35.93
2018-12-30T05:57:20.847Z,41.73
2018-12-30T05:59:49.556Z,42.67
2018-12-30T06:02:18.230Z,55.27
2018-12-30T06:04:46.965Z,77.23
2018-12-30T06:07:15.646Z,88.40
2018-12-30T06:09:44.335Z,81.53
2018-12-30T06:12:13.067Z,73.90
2018-12-30T06:14:41.751Z,72.27
2018-12-30T06:17:10.444Z,71.77
2018-12-30T06:19:39.178Z,79.10
2018-12-30T06:22:07.868Z,68.13
2018-12-30T06:24:36.565Z,53.07
2018-12-30T06:27:05.546Z,110.47
2018-12-30T06:29:34.237Z,175.37
2018-12-30T06:32:02.928Z,75.90
2018-12-30T06:34:31.776Z,116.83
2018-12-30T06:37:00.459Z,38.27
2018-12-30T06:39:29.175Z,46.73
2018-12-30T06:41:58.391Z,69.20
2018-12-30T06:44:27.071Z,50.47
2018-12-30T06:46:55.762Z,65.30
2018-12-30T06:49:24.726Z,65.80
2018-12-30T06:51:53.408Z,63.33
2018-12-30T06:54:22.098Z,124.57
2018-12-30T06:56:51.320Z,240.47
2018-12-30T06:59:20.003Z,102.37
2018-12-30T07:01:48.681Z,66.43
2018-12-30T07:04:17.513Z,54.40
2018-12-30T07:06:46.199Z,60.20
2018-12-30T07:09:14.920Z,95.63
2018-12-30T07:11:43.944Z,162.63
2018-12-30T07:14:12.643Z,62.03
2018-12-30T07:16:41.336Z,205.37
2018-12-30T07:19:10.171Z,161.27
2018-12-30T07:21:38.850Z,431.57
2018-12-30T07:24:07.564Z,141.30
2018-12-30T07:26:36.348Z,103.43
2018-12-30T07:29:05.044Z,143.97
2018-12-30T07:31:33.773Z,219.67
2018-12-30T07:34:02.479Z,293.20
2018-12-30T07:36:31.186Z,244.60
2018-12-30T07:38:59.887Z,183.07
2018-12-30T07:41:28.697Z,208.33
2018-12-30T07:43:57.390Z,180.20
2018-12-30T07:46:26.291Z,127.27
2018-12-30T07:48:57.927Z,113.20
2018-12-30T07:51:26.598Z,133.13
2018-12-30T07:53:55.852Z,72.03
2018-12-30T07:56:27.790Z,45.80
2018-12-30T07:58:58.764Z,83.83
2018-12-30T08:01:27.121Z,45.47
2018-12-30T08:03:55.902Z,46.63
2018-12-30T08:06:24.634Z,34.67
2018-12-30T08:08:53.537Z,39.47
2018-12-30T08:11:22.214Z,38.13
2018-12-30T08:13:50.924Z,40.80
2018-12-30T08:16:19.754Z,31.27
2018-12-30T08:18:48.444Z,33.57
2018-12-30T08:21:31.742Z,36.37
2018-12-30T08:24:00.476Z,25.40
2018-12-30T08:26:29.168Z,39.63
2018-12-30T08:28:57.855Z,27.47
2018-12-30T08:31:26.774Z,24.70
2018-12-30T08:33:55.467Z,25.73
2018-12-30T08:36:24.235Z,30.63
2018-12-30T08:38:53.244Z,25.20
2018-12-30T08:41:21.952Z,23.47
2018-12-30T08:43:50.667Z,80.73
2018-12-30T08:46:19.721Z,30.77
2018-12-30T08:48:49.726Z,52.83
2018-12-30T08:51:18.602Z,22.80
2018-12-30T08:53:47.373Z,22.30
2018-12-30T08:56:16.072Z,30.20
2018-12-30T08:58:44.752Z,26.60
2018-12-30T09:01:13.582Z,29.03
2018-12-30T09:03:42.262Z,26.40
2018-12-30T09:06:10.949Z,24.20
2018-12-30T09:08:39.773Z,23.23
2018-12-30T09:11:08.461Z,27.73
2018-12-30T09:13:37.155Z,27.20
2018-12-30T09:16:06.004Z,27.67
2018-12-30T09:18:34.686Z,25.60
2018-12-30T09:21:03.401Z,26.53
2018-12-30T09:23:37.252Z,26.13
2018-12-30T09:26:02.827Z,24.73
2018-12-30T09:28:31.522Z,23.57
2018-12-30T09:31:00.480Z,27.20
2018-12-30T09:33:30.846Z,25.70
2018-12-30T09:35:59.679Z,21.57
2018-12-30T09:38:28.566Z,46.07
2018-12-30T09:40:57.354Z,25.13
2018-12-30T09:43:27.625Z,36.33
2018-12-30T09:45:56.329Z,18.63
2018-12-30T09:48:25.332Z,56.27
2018-12-30T09:50:54.027Z,24.53
2018-12-30T09:53:26.097Z,23.63
2018-12-30T09:55:54.971Z,53.87
2018-12-30T09:58:24.052Z,50.60
2018-12-30T10:00:52.986Z,46.17
2018-12-30T10:03:21.705Z,26.43
2018-12-30T10:05:50.508Z,20.77
2018-12-30T10:08:22.974Z,50.50
2018-12-30T10:10:51.709Z,20.77
2018-12-30T10:13:20.404Z,55.47
2018-12-30T10:15:49.236Z,33.87
2018-12-30T10:18:20.027Z,66.37
2018-12-30T10:20:48.721Z,31.73
2018-12-30T10:23:17.565Z,27.77
2018-12-30T10:25:46.293Z,28.37
2018-12-30T10:28:15.130Z,31.43
2018-12-30T10:30:44.200Z,19.63
2018-12-30T10:33:13.018Z,27.07
2018-12-30T10:35:41.748Z,23.67
2018-12-30T10:38:10.541Z,30.63
2018-12-30T10:40:39.227Z,25.50
2018-12-30T10:43:07.930Z,18.63
2018-12-30T10:45:36.900Z,23.33
2018-12-30T10:48:05.584Z,25.57
2018-12-30T10:50:34.293Z,24.20
2018-12-30T10:53:03.404Z,23.30
2018-12-30T10:55:32.100Z,30.70
2018-12-30T10:58:00.810Z,28.20
2018-12-30T11:00:29.533Z,67.50
2018-12-30T11:02:58.235Z,34.07
2018-12-30T11:05:26.937Z,16.43
2018-12-30T11:07:55.652Z,22.70
2018-12-30T11:10:24.340Z,18.40
2018-12-30T11:12:53.032Z,34.13
2018-12-30T11:15:21.793Z,17.00
2018-12-30T11:17:50.509Z,21.33
2018-12-30T11:20:19.167Z,18.03
2018-12-30T11:22:48.048Z,20.57
2018-12-30T11:25:16.760Z,21.93
2018-12-30T11:27:45.582Z,27.97
2018-12-30T11:30:14.361Z,26.97
2018-12-30T11:32:43.043Z,25.53
2018-12-30T11:35:11.742Z,22.03
2018-12-30T11:37:40.764Z,28.50
2018-12-30T11:40:09.450Z,27.33
2018-12-30T11:42:38.193Z,23.17
2018-12-30T11:45:07.190Z,28.77
2018-12-30T11:47:35.871Z,34.87
2018-12-30T11:50:07.419Z,34.97
2018-12-30T11:52:36.349Z,29.60
2018-12-30T11:55:05.253Z,38.93
2018-12-30T11:57:34.014Z,40.17
2018-12-30T12:00:02.740Z,52.20
2018-12-30T12:02:31.441Z,31.30
2018-12-30T12:05:00.152Z,49.00
2018-12-30T12:07:29.034Z,28.23
2018-12-30T12:09:57.704Z,40.73
2018-12-30T12:12:26.398Z,27.40
2018-12-30T12:14:55.243Z,25.00
2018-12-30T12:17:23.927Z,25.40
2018-12-30T12:19:52.609Z,27.27
2018-12-30T12:22:21.420Z,31.57
2018-12-30T12:24:50.128Z,31.17
2018-12-30T12:27:18.829Z,27.60
2018-12-30T12:29:47.777Z,26.13
2018-12-30T12:32:16.480Z,35.00
2018-12-30T12:34:45.175Z,21.40
2018-12-30T12:37:13.912Z,16.73
2018-12-30T12:39:42.612Z,16.40
2018-12-30T12:42:11.306Z,26.60
2018-12-30T12:44:40.100Z,18.37
2018-12-30T12:47:08.790Z,22.80
2018-12-30T12:49:37.483Z,12.07
2018-12-30T12:52:06.254Z,24.23
2018-12-30T12:54:34.948Z,16.00
2018-12-30T12:57:03.687Z,10.37
2018-12-30T12:59:32.563Z,10.37
2018-12-30T13:02:01.214Z,13.30
2018-12-30T13:04:29.889Z,13.20
2018-12-30T13:06:59.222Z,19.63
2018-12-30T13:09:27.948Z,19.63
2018-12-30T13:11:56.636Z,21.47
2018-12-30T13:14:25.519Z,22.43
2018-12-30T13:16:54.239Z,20.07
2018-12-30T13:19:22.940Z,23.17
2018-12-30T13:21:51.992Z,32.53
2018-12-30T13:24:20.650Z,19.07
2018-12-30T13:26:49.338Z,22.33
2018-12-30T13:29:18.185Z,20.30
2018-12-30T13:31:46.947Z,23.63
2018-12-30T13:34:15.646Z,15.70
2018-12-30T13:36:44.499Z,11.93
2018-12-30T13:39:13.199Z,11.13
2018-12-30T13:41:41.880Z,7.57
2018-12-30T13:44:10.729Z,7.07
2018-12-30T13:46:39.475Z,26.30
2018-12-30T13:49:09.529Z,23.57
2018-12-30T13:51:38.291Z,17.23
2018-12-30T13:54:08.561Z,13.70
2018-12-30T13:56:37.305Z,17.57
2018-12-30T13:59:06.503Z,38.73
2018-12-30T14:01:35.175Z,16.63
2018-12-30T14:04:03.870Z,23.80
2018-12-30T14:06:32.634Z,21.23
2018-12-30T14:12:01.112Z,16.50
2018-12-30T14:14:29.852Z,13.43
2018-12-30T14:16:58.537Z,14.43
2018-12-30T14:19:27.293Z,13.80
2018-12-30T14:21:55.985Z,34.50
2018-12-30T14:24:24.652Z,22.43
2018-12-30T14:26:59.762Z,19.10
2018-12-30T14:29:23.803Z,10.37
2018-12-30T14:31:52.490Z,11.90
2018-12-30T14:34:21.550Z,7.47
2018-12-30T14:36:50.245Z,13.23
2018-12-30T14:39:18.918Z,15.90
2018-12-30T14:41:47.696Z,12.10
2018-12-30T14:44:16.388Z,10.67
2018-12-30T14:46:45.090Z,16.53
2018-12-30T14:49:14.003Z,18.63
2018-12-30T14:51:42.701Z,19.23
2018-12-30T14:54:11.380Z,41.70
2018-12-30T14:56:40.408Z,31.33
2018-12-30T14:59:09.108Z,25.33
2018-12-30T15:01:37.787Z,27.50
2018-12-30T15:04:06.640Z,28.30
2018-12-30T15:06:35.319Z,25.17
2018-12-30T15:09:05.439Z,25.63
2018-12-30T15:11:34.276Z,21.77
2018-12-30T15:14:02.956Z,16.60
2018-12-30T15:16:31.656Z,148.60
2018-12-30T15:19:00.641Z,337.60
2018-12-30T15:21:29.344Z,334.00
2018-12-30T15:23:58.035Z,270.63
2018-12-30T15:26:27.100Z,134.30
2018-12-30T15:28:55.863Z,83.47
2018-12-30T15:31:24.556Z,190.33
2018-12-30T15:33:53.485Z,187.67
2018-12-30T15:36:22.195Z,192.17
2018-12-30T15:38:50.887Z,194.27
2018-12-30T15:41:19.637Z,237.27
2018-12-30T15:43:48.322Z,277.83
2018-12-30T15:46:17.217Z,264.60
2018-12-30T15:48:46.107Z,210.33
2018-12-30T15:51:14.814Z,185.17
2018-12-30T15:53:43.494Z,122.10
2018-12-30T15:56:12.236Z,79.10
2018-12-30T15:58:40.934Z,68.67
2018-12-30T16:01:09.620Z,60.47
2018-12-30T16:03:38.374Z,61.77
2018-12-30T16:06:07.059Z,106.10
2018-12-30T16:08:35.761Z,111.73
2018-12-30T16:11:05.960Z,111.37
2018-12-30T16:13:34.650Z,127.50
2018-12-30T16:16:03.344Z,115.97
2018-12-30T16:18:32.054Z,86.13
2018-12-30T16:21:00.742Z,43.90
2018-12-30T16:23:29.426Z,24.37
2018-12-30T16:25:58.176Z,26.30
2018-12-30T16:28:26.863Z,13.17
2018-12-30T16:30:55.549Z,20.60
2018-12-30T16:33:24.395Z,33.20
2018-12-30T16:35:53.083Z,12.93
2018-12-30T16:38:21.752Z,10.90
2018-12-30T16:40:50.535Z,12.33
2018-12-30T16:43:19.294Z,15.23
2018-12-30T16:45:48.990Z,10.77
2018-12-30T16:48:18.012Z,17.07
2018-12-30T16:50:46.739Z,17.37
2018-12-30T16:53:19.498Z,19.57
2018-12-30T16:55:48.527Z,24.77
2018-12-30T16:58:17.264Z,16.00
2018-12-30T17:00:45.945Z,14.97
2018-12-30T17:03:14.805Z,16.47
2018-12-30T17:05:43.493Z,27.70
2018-12-30T17:08:12.175Z,48.10
2018-12-30T17:10:41.258Z,55.97
2018-12-30T17:13:09.998Z,51.90
2018-12-30T17:15:38.700Z,54.90
2018-12-30T17:18:08.426Z,59.00
2018-12-30T17:20:37.126Z,52.10
2018-12-30T17:23:05.857Z,63.73
2018-12-30T17:25:42.865Z,65.03
2018-12-30T17:31:10.736Z,57.37
2018-12-30T17:33:39.419Z,45.10
2018-12-30T17:36:08.119Z,39.43
2018-12-30T17:38:36.874Z,66.60
2018-12-30T17:41:05.564Z,47.17
2018-12-30T17:43:34.251Z,38.27
2018-12-30T17:46:04.432Z,34.03
2018-12-30T17:48:33.111Z,31.57
2018-12-30T17:51:01.792Z,43.30
2018-12-30T17:53:30.534Z,82.07
2018-12-30T17:55:59.214Z,84.27
2018-12-30T17:58:27.924Z,133.90
2018-12-30T18:00:56.837Z,113.17
2018-12-30T18:03:25.531Z,149.73
2018-12-30T18:05:54.247Z,119.47
2018-12-30T18:08:23.195Z,101.00
2018-12-30T18:10:51.886Z,53.40
2018-12-30T18:13:20.574Z,76.77
2018-12-30T18:15:49.306Z,76.33
2018-12-30T18:18:17.994Z,57.43
2018-12-30T18:20:46.875Z,74.67
2018-12-30T18:23:15.682Z,61.83
2018-12-30T18:25:44.392Z,56.93
2018-12-30T18:28:13.078Z,72.07
2018-12-30T18:30:42.004Z,54.00
2018-12-30T18:33:10.708Z,58.43
2018-12-30T18:35:39.384Z,53.37
2018-12-30T18:38:08.208Z,55.50
2018-12-30T18:40:36.911Z,40.17
2018-12-30T18:43:05.599Z,38.93
2018-12-30T18:45:34.429Z,41.80
2018-12-30T18:48:03.113Z,44.60
2018-12-30T18:50:31.824Z,39.47
2018-12-30T18:53:00.802Z,37.67
2018-12-30T18:55:29.507Z,38.43
2018-12-30T18:57:58.195Z,40.63
2018-12-30T19:00:29.987Z,38.27
2018-12-30T19:02:58.673Z,42.17
2018-12-30T19:05:28.329Z,36.97
2018-12-30T19:07:57.211Z,43.87
2018-12-30T19:10:25.888Z,37.53
2018-12-30T19:12:54.600Z,139.80
2018-12-30T19:15:23.357Z,90.10
2018-12-30T19:17:52.118Z,48.33
2018-12-30T19:20:20.814Z,30.50
2018-12-30T19:22:49.579Z,41.50
2018-12-30T19:25:18.260Z,29.80
2018-12-30T19:27:46.956Z,35.20
2018-12-30T19:30:15.912Z,22.50
2018-12-30T19:32:44.590Z,27.40
2018-12-30T19:35:13.272Z,22.00
2018-12-30T19:37:42.187Z,23.37
2018-12-30T19:40:11.533Z,19.93
2018-12-30T19:42:40.268Z,20.83
2018-12-30T19:45:09.226Z,23.13
2018-12-30T19:47:37.903Z,24.57
2018-12-30T19:50:07.397Z,24.77
2018-12-30T19:52:36.417Z,23.37
2018-12-30T19:55:05.306Z,26.47
2018-12-30T19:57:33.994Z,26.03
2018-12-30T20:00:02.748Z,25.90
2018-12-30T20:02:31.438Z,159.13
2018-12-30T20:05:00.176Z,47.33
2018-12-30T20:07:29.053Z,73.70
2018-12-30T20:09:57.748Z,308.87
2018-12-30T20:12:26.491Z,220.50
2018-12-30T20:14:55.353Z,481.87
2018-12-30T20:17:24.036Z,262.67
2018-12-30T20:19:53.065Z,189.97
2018-12-30T20:22:21.843Z,72.83
2018-12-30T20:24:50.505Z,68.90
2018-12-30T20:27:19.198Z,61.67
2018-12-30T20:29:48.323Z,54.47
2018-12-30T20:32:17.004Z,58.87
2018-12-30T20:34:45.698Z,64.83
2018-12-30T20:37:14.606Z,54.60
2018-12-30T20:39:43.291Z,54.73
2018-12-30T20:42:11.978Z,64.60
2018-12-30T20:44:40.813Z,61.47
2018-12-30T20:47:09.533Z,56.53
2018-12-30T20:49:38.235Z,46.30
2018-12-30T20:52:07.235Z,53.93
2018-12-30T20:54:35.936Z,49.50
2018-12-30T20:57:04.727Z,50.23
2018-12-30T20:59:33.522Z,44.60
2018-12-30T21:02:02.221Z,43.17
2018-12-30T21:04:30.990Z,36.70
2018-12-30T21:06:59.855Z,42.10
2018-12-30T21:09:28.536Z,40.63
2018-12-30T21:11:57.238Z,44.03
2018-12-30T21:14:26.174Z,40.33
2018-12-30T21:16:54.881Z,37.60
2018-12-30T21:19:23.580Z,53.87
2018-12-30T21:21:52.642Z,53.00
2018-12-30T21:24:21.336Z,44.30
2018-12-30T21:26:50.020Z,42.60
2018-12-30T21:29:18.921Z,44.73
2018-12-30T21:31:47.623Z,40.77
2018-12-30T21:34:16.361Z,42.57
2018-12-30T21:36:45.394Z,38.13
2018-12-30T21:39:14.096Z,40.87
2018-12-30T21:41:42.844Z,34.20
2018-12-30T21:44:11.763Z,33.00
2018-12-30T21:46:40.481Z,28.13
2018-12-30T21:49:09.179Z,33.20
2018-12-30T21:51:38.009Z,28.63
2018-12-30T21:54:06.686Z,28.23
2018-12-30T21:56:35.376Z,26.23
2018-12-30T21:59:04.627Z,31.13
2018-12-30T22:01:33.383Z,33.17
2018-12-30T22:04:02.084Z,27.07
2018-12-30T22:06:30.874Z,29.40
2018-12-30T22:08:59.546Z,32.77
2018-12-30T22:11:28.234Z,31.77
2018-12-30T22:13:57.094Z,45.43
2018-12-30T22:16:25.887Z,31.03
2018-12-30T22:18:54.550Z,28.43
2018-12-30T22:21:23.599Z,29.37
2018-12-30T22:23:52.288Z,28.00
2018-12-30T22:26:20.964Z,31.30
2018-12-30T22:28:49.990Z,27.53
2018-12-30T22:31:18.655Z,27.57
2018-12-30T22:33:47.341Z,29.73
2018-12-30T22:36:16.091Z,29.13
2018-12-30T22:38:44.861Z,29.10
2018-12-30T22:41:13.537Z,28.27
2018-12-30T22:43:42.251Z,30.17
2018-12-30T22:46:10.954Z,32.40
2018-12-30T22:48:39.643Z,23.60
2018-12-30T22:51:08.642Z,25.53
2018-12-30T22:53:37.333Z,26.10
2018-12-30T22:56:06.018Z,24.40
2018-12-30T22:58:35.004Z,26.57
2018-12-30T23:01:05.380Z,24.23
2018-12-30T23:03:34.155Z,25.97
2018-12-30T23:06:04.237Z,28.40
2018-12-30T23:08:32.937Z,31.27
2018-12-30T23:11:01.616Z,28.93
2018-12-30T23:13:30.636Z,31.13
2018-12-30T23:15:59.303Z,34.27
2018-12-30T23:18:27.985Z,33.37
2018-12-30T23:20:56.857Z,34.43
2018-12-30T23:23:25.528Z,35.93
2018-12-30T23:25:54.243Z,32.73
2018-12-30T23:28:23.082Z,35.87
2018-12-30T23:30:51.769Z,30.17
2018-12-30T23:33:21.943Z,27.27
2018-12-30T23:35:50.985Z,26.57
2018-12-30T23:38:19.666Z,27.57
2018-12-30T23:40:48.360Z,32.77
2018-12-30T23:43:17.224Z,39.40
2018-12-30T23:45:45.935Z,30.37
2018-12-30T23:48:14.606Z,39.53
2018-12-30T23:50:43.652Z,40.30
2018-12-30T23:53:12.336Z,38.97
2018-12-30T23:55:41.031Z,35.13
2018-12-30T23:58:10.023Z,33.57
